sensor_id;sensor_type;location;lat;lon;timestamp;P1;durP1;ratioP1;P2;durP2;ratioP2
73980;SDS011;62348;51.412;5.436;2023-11-18T00:01:48;32.55;;;19.88;;
73980;SDS011;62348;51.412;5.436;2023-11-18T00:04:13;32.30;;;20.40;;
73980;SDS011;62348;51.412;5.436;2023-11-18T00:06:41;28.20;;;19.50;;
73980;SDS011;62348;51.412;5.436;2023-11-18T00:09:09;28.85;;;19.15;;
73980;SDS011;62348;51.412;5.436;2023-11-18T00:11:39;31.80;;;19.77;;
73980;SDS011;62348;51.412;5.436;2023-11-18T00:14:06;31.02;;;19.25;;
73980;SDS011;62348;51.412;5.436;2023-11-18T00:16:32;31.48;;;20.88;;
73980;SDS011;62348;51.412;5.436;2023-11-18T00:18:57;31.17;;;19.58;;
73980;SDS011;62348;51.412;5.436;2023-11-18T00:21:26;33.88;;;19.98;;
73980;SDS011;62348;51.412;5.436;2023-11-18T00:23:52;33.03;;;19.63;;
73980;SDS011;62348;51.412;5.436;2023-11-18T00:26:18;28.33;;;19.13;;
73980;SDS011;62348;51.412;5.436;2023-11-18T00:28:43;28.80;;;18.60;;
73980;SDS011;62348;51.412;5.436;2023-11-18T00:31:09;30.63;;;20.05;;
73980;SDS011;62348;51.412;5.436;2023-11-18T00:33:34;32.22;;;18.98;;
73980;SDS011;62348;51.412;5.436;2023-11-18T00:35:59;30.08;;;19.40;;
73980;SDS011;62348;51.412;5.436;2023-11-18T00:38:25;31.02;;;19.02;;
73980;SDS011;62348;51.412;5.436;2023-11-18T00:40:51;31.83;;;18.77;;
73980;SDS011;62348;51.412;5.436;2023-11-18T00:43:17;30.67;;;20.52;;
73980;SDS011;62348;51.412;5.436;2023-11-18T00:45:42;33.85;;;21.13;;
73980;SDS011;62348;51.412;5.436;2023-11-18T00:48:08;28.75;;;19.20;;
73980;SDS011;62348;51.412;5.436;2023-11-18T00:50:34;29.42;;;18.90;;
73980;SDS011;62348;51.412;5.436;2023-11-18T00:53:00;32.10;;;18.60;;
73980;SDS011;62348;51.412;5.436;2023-11-18T00:55:25;30.00;;;19.58;;
73980;SDS011;62348;51.412;5.436;2023-11-18T00:57:51;28.30;;;18.65;;
73980;SDS011;62348;51.412;5.436;2023-11-18T01:00:16;27.70;;;18.10;;
73980;SDS011;62348;51.412;5.436;2023-11-18T01:02:46;25.42;;;17.10;;
73980;SDS011;62348;51.412;5.436;2023-11-18T01:05:14;26.33;;;17.98;;
73980;SDS011;62348;51.412;5.436;2023-11-18T01:07:40;27.45;;;18.75;;
73980;SDS011;62348;51.412;5.436;2023-11-18T01:10:06;29.40;;;18.75;;
73980;SDS011;62348;51.412;5.436;2023-11-18T01:12:32;27.77;;;18.85;;
73980;SDS011;62348;51.412;5.436;2023-11-18T01:14:58;27.83;;;17.65;;
73980;SDS011;62348;51.412;5.436;2023-11-18T01:17:24;30.55;;;18.33;;
73980;SDS011;62348;51.412;5.436;2023-11-18T01:19:49;24.35;;;17.02;;
73980;SDS011;62348;51.412;5.436;2023-11-18T01:22:15;27.70;;;18.13;;
73980;SDS011;62348;51.412;5.436;2023-11-18T01:24:40;29.88;;;18.77;;
73980;SDS011;62348;51.412;5.436;2023-11-18T01:27:06;26.33;;;18.13;;
73980;SDS011;62348;51.412;5.436;2023-11-18T01:29:35;26.20;;;18.70;;
73980;SDS011;62348;51.412;5.436;2023-11-18T01:32:00;27.20;;;17.65;;
73980;SDS011;62348;51.412;5.436;2023-11-18T01:34:33;29.20;;;19.92;;
73980;SDS011;62348;51.412;5.436;2023-11-18T01:36:59;29.58;;;19.45;;
73980;SDS011;62348;51.412;5.436;2023-11-18T01:39:24;30.15;;;18.65;;
73980;SDS011;62348;51.412;5.436;2023-11-18T01:41:51;26.73;;;18.20;;
73980;SDS011;62348;51.412;5.436;2023-11-18T01:44:17;27.98;;;18.05;;
73980;SDS011;62348;51.412;5.436;2023-11-18T01:46:44;31.20;;;20.65;;
73980;SDS011;62348;51.412;5.436;2023-11-18T01:49:14;29.60;;;19.05;;
73980;SDS011;62348;51.412;5.436;2023-11-18T01:51:42;28.50;;;18.70;;
73980;SDS011;62348;51.412;5.436;2023-11-18T01:54:10;30.88;;;20.33;;
73980;SDS011;62348;51.412;5.436;2023-11-18T01:56:40;30.00;;;19.17;;
73980;SDS011;62348;51.412;5.436;2023-11-18T01:59:09;31.27;;;20.08;;
73980;SDS011;62348;51.412;5.436;2023-11-18T02:01:35;30.30;;;21.10;;
73980;SDS011;62348;51.412;5.436;2023-11-18T02:04:01;32.33;;;20.48;;
73980;SDS011;62348;51.412;5.436;2023-11-18T02:06:27;30.17;;;20.63;;
73980;SDS011;62348;51.412;5.436;2023-11-18T02:08:53;31.38;;;21.92;;
73980;SDS011;62348;51.412;5.436;2023-11-18T02:11:30;33.35;;;20.33;;
73980;SDS011;62348;51.412;5.436;2023-11-18T02:14:06;32.40;;;20.95;;
73980;SDS011;62348;51.412;5.436;2023-11-18T02:16:36;34.30;;;22.58;;
73980;SDS011;62348;51.412;5.436;2023-11-18T02:19:03;34.05;;;21.58;;
73980;SDS011;62348;51.412;5.436;2023-11-18T02:21:34;35.50;;;21.23;;
73980;SDS011;62348;51.412;5.436;2023-11-18T02:24:02;34.20;;;21.20;;
73980;SDS011;62348;51.412;5.436;2023-11-18T02:26:29;35.28;;;22.83;;
73980;SDS011;62348;51.412;5.436;2023-11-18T02:28:55;34.08;;;22.70;;
73980;SDS011;62348;51.412;5.436;2023-11-18T02:31:22;37.90;;;23.45;;
73980;SDS011;62348;51.412;5.436;2023-11-18T02:34:08;34.03;;;21.02;;
73980;SDS011;62348;51.412;5.436;2023-11-18T02:36:41;33.17;;;22.95;;
73980;SDS011;62348;51.412;5.436;2023-11-18T02:39:20;32.80;;;22.30;;
73980;SDS011;62348;51.412;5.436;2023-11-18T02:41:47;34.72;;;21.88;;
73980;SDS011;62348;51.412;5.436;2023-11-18T02:44:16;34.40;;;22.75;;
73980;SDS011;62348;51.412;5.436;2023-11-18T02:46:43;34.67;;;22.40;;
73980;SDS011;62348;51.412;5.436;2023-11-18T02:49:09;33.70;;;21.95;;
73980;SDS011;62348;51.412;5.436;2023-11-18T02:51:35;33.70;;;21.13;;
73980;SDS011;62348;51.412;5.436;2023-11-18T02:54:07;36.67;;;21.90;;
73980;SDS011;62348;51.412;5.436;2023-11-18T02:56:35;36.35;;;22.98;;
73980;SDS011;62348;51.412;5.436;2023-11-18T02:59:01;31.00;;;21.65;;
73980;SDS011;62348;51.412;5.436;2023-11-18T03:01:30;33.05;;;21.75;;
73980;SDS011;62348;51.412;5.436;2023-11-18T03:03:56;31.58;;;20.77;;
73980;SDS011;62348;51.412;5.436;2023-11-18T03:06:22;36.72;;;22.30;;
73980;SDS011;62348;51.412;5.436;2023-11-18T03:08:47;32.13;;;20.88;;
73980;SDS011;62348;51.412;5.436;2023-11-18T03:11:13;33.70;;;20.45;;
73980;SDS011;62348;51.412;5.436;2023-11-18T03:13:38;33.00;;;21.42;;
73980;SDS011;62348;51.412;5.436;2023-11-18T03:16:07;34.53;;;20.77;;
73980;SDS011;62348;51.412;5.436;2023-11-18T03:18:36;33.88;;;21.25;;
73980;SDS011;62348;51.412;5.436;2023-11-18T03:21:03;30.55;;;20.08;;
73980;SDS011;62348;51.412;5.436;2023-11-18T03:23:31;33.80;;;20.63;;
73980;SDS011;62348;51.412;5.436;2023-11-18T03:25:57;33.45;;;20.55;;
73980;SDS011;62348;51.412;5.436;2023-11-18T03:28:23;31.70;;;22.08;;
73980;SDS011;62348;51.412;5.436;2023-11-18T03:30:48;31.05;;;19.83;;
73980;SDS011;62348;51.412;5.436;2023-11-18T03:33:14;29.45;;;19.35;;
73980;SDS011;62348;51.412;5.436;2023-11-18T03:35:39;30.25;;;19.52;;
73980;SDS011;62348;51.412;5.436;2023-11-18T03:38:05;30.92;;;20.20;;
73980;SDS011;62348;51.412;5.436;2023-11-18T03:40:30;30.05;;;19.45;;
73980;SDS011;62348;51.412;5.436;2023-11-18T03:42:56;30.83;;;19.65;;
73980;SDS011;62348;51.412;5.436;2023-11-18T03:45:23;31.40;;;20.75;;
73980;SDS011;62348;51.412;5.436;2023-11-18T03:47:49;28.63;;;20.23;;
73980;SDS011;62348;51.412;5.436;2023-11-18T03:50:15;32.03;;;20.52;;
73980;SDS011;62348;51.412;5.436;2023-11-18T03:52:41;33.70;;;21.52;;
73980;SDS011;62348;51.412;5.436;2023-11-18T03:55:07;33.42;;;20.75;;
73980;SDS011;62348;51.412;5.436;2023-11-18T03:57:33;33.63;;;21.15;;
73980;SDS011;62348;51.412;5.436;2023-11-18T03:59:59;40.55;;;21.80;;
73980;SDS011;62348;51.412;5.436;2023-11-18T04:02:24;33.80;;;22.02;;
73980;SDS011;62348;51.412;5.436;2023-11-18T04:04:50;32.80;;;20.73;;
73980;SDS011;62348;51.412;5.436;2023-11-18T04:07:16;35.60;;;21.58;;
73980;SDS011;62348;51.412;5.436;2023-11-18T04:09:42;33.85;;;20.52;;
73980;SDS011;62348;51.412;5.436;2023-11-18T04:12:08;35.13;;;21.25;;
73980;SDS011;62348;51.412;5.436;2023-11-18T04:14:35;35.63;;;23.48;;
73980;SDS011;62348;51.412;5.436;2023-11-18T04:17:01;34.95;;;22.10;;
73980;SDS011;62348;51.412;5.436;2023-11-18T04:19:27;33.40;;;21.00;;
73980;SDS011;62348;51.412;5.436;2023-11-18T04:21:52;59.60;;;22.67;;
73980;SDS011;62348;51.412;5.436;2023-11-18T04:24:18;31.25;;;20.77;;
73980;SDS011;62348;51.412;5.436;2023-11-18T04:26:43;32.55;;;21.35;;
73980;SDS011;62348;51.412;5.436;2023-11-18T04:29:09;34.55;;;21.05;;
73980;SDS011;62348;51.412;5.436;2023-11-18T04:31:34;31.30;;;21.70;;
73980;SDS011;62348;51.412;5.436;2023-11-18T04:34:01;38.38;;;22.25;;
73980;SDS011;62348;51.412;5.436;2023-11-18T04:36:26;32.80;;;20.80;;
73980;SDS011;62348;51.412;5.436;2023-11-18T04:38:52;33.90;;;21.05;;
73980;SDS011;62348;51.412;5.436;2023-11-18T04:41:17;38.30;;;21.77;;
73980;SDS011;62348;51.412;5.436;2023-11-18T04:43:43;33.88;;;21.10;;
73980;SDS011;62348;51.412;5.436;2023-11-18T04:46:08;34.28;;;21.58;;
73980;SDS011;62348;51.412;5.436;2023-11-18T04:48:34;35.78;;;20.13;;
73980;SDS011;62348;51.412;5.436;2023-11-18T04:51:00;30.10;;;19.45;;
73980;SDS011;62348;51.412;5.436;2023-11-18T04:53:26;31.27;;;18.88;;
73980;SDS011;62348;51.412;5.436;2023-11-18T04:55:51;34.83;;;20.23;;
73980;SDS011;62348;51.412;5.436;2023-11-18T04:58:17;30.25;;;19.00;;
73980;SDS011;62348;51.412;5.436;2023-11-18T05:00:42;29.10;;;19.17;;
73980;SDS011;62348;51.412;5.436;2023-11-18T05:03:08;30.73;;;19.00;;
73980;SDS011;62348;51.412;5.436;2023-11-18T05:05:38;28.55;;;18.63;;
73980;SDS011;62348;51.412;5.436;2023-11-18T05:08:04;26.25;;;18.83;;
73980;SDS011;62348;51.412;5.436;2023-11-18T05:10:31;28.70;;;19.05;;
73980;SDS011;62348;51.412;5.436;2023-11-18T05:12:58;31.85;;;19.00;;
73980;SDS011;62348;51.412;5.436;2023-11-18T05:15:23;32.40;;;18.20;;
73980;SDS011;62348;51.412;5.436;2023-11-18T05:17:54;28.77;;;17.20;;
73980;SDS011;62348;51.412;5.436;2023-11-18T05:20:20;25.98;;;16.50;;
73980;SDS011;62348;51.412;5.436;2023-11-18T05:22:46;25.42;;;16.20;;
73980;SDS011;62348;51.412;5.436;2023-11-18T05:25:12;30.25;;;17.15;;
73980;SDS011;62348;51.412;5.436;2023-11-18T05:27:37;26.85;;;16.42;;
73980;SDS011;62348;51.412;5.436;2023-11-18T05:30:09;24.50;;;16.73;;
73980;SDS011;62348;51.412;5.436;2023-11-18T05:32:36;24.90;;;16.55;;
73980;SDS011;62348;51.412;5.436;2023-11-18T05:35:02;28.38;;;16.00;;
73980;SDS011;62348;51.412;5.436;2023-11-18T05:37:30;30.25;;;16.80;;
73980;SDS011;62348;51.412;5.436;2023-11-18T05:40:00;21.70;;;15.88;;
73980;SDS011;62348;51.412;5.436;2023-11-18T05:42:31;23.40;;;15.65;;
73980;SDS011;62348;51.412;5.436;2023-11-18T05:44:56;25.38;;;15.75;;
73980;SDS011;62348;51.412;5.436;2023-11-18T05:47:25;24.27;;;15.45;;
73980;SDS011;62348;51.412;5.436;2023-11-18T05:49:51;28.70;;;15.00;;
73980;SDS011;62348;51.412;5.436;2023-11-18T05:52:18;23.83;;;14.57;;
73980;SDS011;62348;51.412;5.436;2023-11-18T05:54:45;26.48;;;16.75;;
73980;SDS011;62348;51.412;5.436;2023-11-18T05:57:12;21.52;;;14.15;;
73980;SDS011;62348;51.412;5.436;2023-11-18T05:59:37;23.05;;;14.18;;
73980;SDS011;62348;51.412;5.436;2023-11-18T06:02:03;23.98;;;14.23;;
73980;SDS011;62348;51.412;5.436;2023-11-18T06:04:28;23.42;;;14.02;;
73980;SDS011;62348;51.412;5.436;2023-11-18T06:06:55;19.50;;;13.02;;
73980;SDS011;62348;51.412;5.436;2023-11-18T06:09:21;23.13;;;14.10;;
73980;SDS011;62348;51.412;5.436;2023-11-18T06:11:50;19.95;;;13.57;;
73980;SDS011;62348;51.412;5.436;2023-11-18T06:14:16;18.05;;;13.50;;
73980;SDS011;62348;51.412;5.436;2023-11-18T06:16:42;21.38;;;12.77;;
73980;SDS011;62348;51.412;5.436;2023-11-18T06:19:07;20.23;;;12.65;;
73980;SDS011;62348;51.412;5.436;2023-11-18T06:21:34;23.95;;;13.23;;
73980;SDS011;62348;51.412;5.436;2023-11-18T06:24:01;21.77;;;12.88;;
73980;SDS011;62348;51.412;5.436;2023-11-18T06:26:29;20.60;;;12.95;;
73980;SDS011;62348;51.412;5.436;2023-11-18T06:28:55;20.55;;;12.65;;
73980;SDS011;62348;51.412;5.436;2023-11-18T06:31:21;25.80;;;12.80;;
73980;SDS011;62348;51.412;5.436;2023-11-18T06:33:48;18.38;;;13.35;;
73980;SDS011;62348;51.412;5.436;2023-11-18T06:38:40;21.20;;;12.43;;
73980;SDS011;62348;51.412;5.436;2023-11-18T06:41:05;21.48;;;12.35;;
73980;SDS011;62348;51.412;5.436;2023-11-18T06:43:35;17.77;;;12.40;;
73980;SDS011;62348;51.412;5.436;2023-11-18T06:46:16;23.60;;;12.85;;
73980;SDS011;62348;51.412;5.436;2023-11-18T06:48:46;19.33;;;12.48;;
73980;SDS011;62348;51.412;5.436;2023-11-18T06:51:13;18.63;;;12.23;;
73980;SDS011;62348;51.412;5.436;2023-11-18T06:53:40;20.02;;;12.75;;
73980;SDS011;62348;51.412;5.436;2023-11-18T06:56:06;19.52;;;11.75;;
73980;SDS011;62348;51.412;5.436;2023-11-18T06:58:31;21.98;;;11.73;;
73980;SDS011;62348;51.412;5.436;2023-11-18T07:00:57;22.65;;;11.65;;
73980;SDS011;62348;51.412;5.436;2023-11-18T07:03:23;18.38;;;11.45;;
73980;SDS011;62348;51.412;5.436;2023-11-18T07:05:48;13.35;;;9.75;;
73980;SDS011;62348;51.412;5.436;2023-11-18T07:08:14;18.48;;;10.73;;
73980;SDS011;62348;51.412;5.436;2023-11-18T07:10:40;17.98;;;11.40;;
73980;SDS011;62348;51.412;5.436;2023-11-18T07:13:05;13.30;;;9.60;;
73980;SDS011;62348;51.412;5.436;2023-11-18T07:15:33;18.25;;;10.70;;
73980;SDS011;62348;51.412;5.436;2023-11-18T07:18:00;13.73;;;9.30;;
73980;SDS011;62348;51.412;5.436;2023-11-18T07:20:26;20.17;;;10.80;;
73980;SDS011;62348;51.412;5.436;2023-11-18T07:22:52;14.00;;;9.80;;
73980;SDS011;62348;51.412;5.436;2023-11-18T07:25:17;17.00;;;9.48;;
73980;SDS011;62348;51.412;5.436;2023-11-18T07:27:43;15.77;;;10.07;;
73980;SDS011;62348;51.412;5.436;2023-11-18T07:30:08;15.80;;;9.48;;
73980;SDS011;62348;51.412;5.436;2023-11-18T07:32:36;15.90;;;9.10;;
73980;SDS011;62348;51.412;5.436;2023-11-18T07:35:01;17.45;;;9.15;;
73980;SDS011;62348;51.412;5.436;2023-11-18T07:37:27;17.70;;;9.43;;
73980;SDS011;62348;51.412;5.436;2023-11-18T07:39:52;14.30;;;9.13;;
73980;SDS011;62348;51.412;5.436;2023-11-18T07:42:20;16.40;;;9.23;;
73980;SDS011;62348;51.412;5.436;2023-11-18T07:44:45;14.45;;;9.00;;
73980;SDS011;62348;51.412;5.436;2023-11-18T07:47:12;16.20;;;8.25;;
73980;SDS011;62348;51.412;5.436;2023-11-18T07:49:39;13.07;;;8.40;;
73980;SDS011;62348;51.412;5.436;2023-11-18T07:52:05;12.20;;;8.48;;
73980;SDS011;62348;51.412;5.436;2023-11-18T07:54:31;20.75;;;8.98;;
73980;SDS011;62348;51.412;5.436;2023-11-18T07:56:56;15.13;;;8.63;;
73980;SDS011;62348;51.412;5.436;2023-11-18T07:59:22;15.05;;;8.85;;
73980;SDS011;62348;51.412;5.436;2023-11-18T08:01:48;15.20;;;7.80;;
73980;SDS011;62348;51.412;5.436;2023-11-18T08:04:15;10.80;;;7.53;;
73980;SDS011;62348;51.412;5.436;2023-11-18T08:06:40;12.40;;;7.57;;
73980;SDS011;62348;51.412;5.436;2023-11-18T08:09:08;13.82;;;7.57;;
73980;SDS011;62348;51.412;5.436;2023-11-18T08:11:39;11.73;;;7.10;;
73980;SDS011;62348;51.412;5.436;2023-11-18T08:14:06;11.27;;;7.78;;
73980;SDS011;62348;51.412;5.436;2023-11-18T08:16:35;15.18;;;7.15;;
73980;SDS011;62348;51.412;5.436;2023-11-18T08:19:01;14.98;;;8.35;;
73980;SDS011;62348;51.412;5.436;2023-11-18T08:21:33;12.68;;;6.80;;
73980;SDS011;62348;51.412;5.436;2023-11-18T08:24:03;13.68;;;6.75;;
73980;SDS011;62348;51.412;5.436;2023-11-18T08:26:32;11.32;;;7.15;;
73980;SDS011;62348;51.412;5.436;2023-11-18T08:28:58;8.63;;;6.63;;
73980;SDS011;62348;51.412;5.436;2023-11-18T08:31:24;12.05;;;6.82;;
73980;SDS011;62348;51.412;5.436;2023-11-18T08:33:49;13.93;;;6.97;;
73980;SDS011;62348;51.412;5.436;2023-11-18T08:36:15;11.48;;;7.15;;
73980;SDS011;62348;51.412;5.436;2023-11-18T08:38:40;9.63;;;5.68;;
73980;SDS011;62348;51.412;5.436;2023-11-18T08:41:09;9.65;;;6.22;;
73980;SDS011;62348;51.412;5.436;2023-11-18T08:43:34;11.57;;;6.10;;
73980;SDS011;62348;51.412;5.436;2023-11-18T08:46:00;9.90;;;6.88;;
73980;SDS011;62348;51.412;5.436;2023-11-18T08:48:26;10.32;;;5.60;;
73980;SDS011;62348;51.412;5.436;2023-11-18T08:50:53;13.85;;;6.68;;
73980;SDS011;62348;51.412;5.436;2023-11-18T08:53:18;13.85;;;7.25;;
73980;SDS011;62348;51.412;5.436;2023-11-18T08:55:51;14.10;;;8.98;;
73980;SDS011;62348;51.412;5.436;2023-11-18T08:58:19;11.00;;;6.00;;
73980;SDS011;62348;51.412;5.436;2023-11-18T09:00:47;11.15;;;6.68;;
73980;SDS011;62348;51.412;5.436;2023-11-18T09:03:18;12.35;;;6.68;;
73980;SDS011;62348;51.412;5.436;2023-11-18T09:06:00;12.10;;;6.65;;
73980;SDS011;62348;51.412;5.436;2023-11-18T09:08:37;12.10;;;6.00;;
73980;SDS011;62348;51.412;5.436;2023-11-18T09:11:08;13.15;;;5.97;;
73980;SDS011;62348;51.412;5.436;2023-11-18T09:13:42;12.13;;;6.78;;
73980;SDS011;62348;51.412;5.436;2023-11-18T09:16:11;11.15;;;6.32;;
73980;SDS011;62348;51.412;5.436;2023-11-18T09:18:40;10.35;;;5.97;;
73980;SDS011;62348;51.412;5.436;2023-11-18T09:21:06;10.60;;;5.65;;
73980;SDS011;62348;51.412;5.436;2023-11-18T09:23:33;14.77;;;7.40;;
73980;SDS011;62348;51.412;5.436;2023-11-18T09:26:00;11.52;;;6.13;;
73980;SDS011;62348;51.412;5.436;2023-11-18T09:28:27;10.27;;;6.38;;
73980;SDS011;62348;51.412;5.436;2023-11-18T09:30:58;15.52;;;7.53;;
73980;SDS011;62348;51.412;5.436;2023-11-18T09:33:26;12.48;;;6.15;;
73980;SDS011;62348;51.412;5.436;2023-11-18T09:35:56;9.38;;;6.28;;
73980;SDS011;62348;51.412;5.436;2023-11-18T09:38:26;16.38;;;7.03;;
73980;SDS011;62348;51.412;5.436;2023-11-18T09:40:54;14.43;;;6.63;;
73980;SDS011;62348;51.412;5.436;2023-11-18T09:43:21;15.77;;;6.82;;
73980;SDS011;62348;51.412;5.436;2023-11-18T09:45:50;13.25;;;6.50;;
73980;SDS011;62348;51.412;5.436;2023-11-18T09:48:20;11.80;;;6.00;;
73980;SDS011;62348;51.412;5.436;2023-11-18T09:50:50;13.90;;;6.13;;
73980;SDS011;62348;51.412;5.436;2023-11-18T09:53:17;8.43;;;5.93;;
73980;SDS011;62348;51.412;5.436;2023-11-18T09:55:59;14.82;;;6.00;;
73980;SDS011;62348;51.412;5.436;2023-11-18T09:58:40;15.88;;;5.93;;
73980;SDS011;62348;51.412;5.436;2023-11-18T10:01:09;12.70;;;6.28;;
73980;SDS011;62348;51.412;5.436;2023-11-18T10:03:39;12.75;;;6.10;;
73980;SDS011;62348;51.412;5.436;2023-11-18T10:06:07;15.00;;;6.35;;
73980;SDS011;62348;51.412;5.436;2023-11-18T10:08:34;12.93;;;6.10;;
73980;SDS011;62348;51.412;5.436;2023-11-18T10:11:03;13.02;;;5.60;;
73980;SDS011;62348;51.412;5.436;2023-11-18T10:13:34;12.88;;;6.22;;
73980;SDS011;62348;51.412;5.436;2023-11-18T10:16:05;14.23;;;6.25;;
73980;SDS011;62348;51.412;5.436;2023-11-18T10:18:34;10.95;;;6.03;;
73980;SDS011;62348;51.412;5.436;2023-11-18T10:21:02;13.30;;;5.85;;
73980;SDS011;62348;51.412;5.436;2023-11-18T10:23:33;12.40;;;6.20;;
73980;SDS011;62348;51.412;5.436;2023-11-18T10:25:59;11.43;;;5.93;;
73980;SDS011;62348;51.412;5.436;2023-11-18T10:31:02;15.93;;;7.15;;
73980;SDS011;62348;51.412;5.436;2023-11-18T10:33:34;10.15;;;5.25;;
73980;SDS011;62348;51.412;5.436;2023-11-18T10:36:03;11.85;;;5.78;;
73980;SDS011;62348;51.412;5.436;2023-11-18T10:38:38;11.38;;;5.65;;
73980;SDS011;62348;51.412;5.436;2023-11-18T10:41:08;15.13;;;5.45;;
73980;SDS011;62348;51.412;5.436;2023-11-18T10:43:34;15.98;;;5.80;;
73980;SDS011;62348;51.412;5.436;2023-11-18T10:46:19;11.20;;;5.93;;
73980;SDS011;62348;51.412;5.436;2023-11-18T10:48:50;13.45;;;4.90;;
73980;SDS011;62348;51.412;5.436;2023-11-18T10:51:19;11.57;;;5.18;;
73980;SDS011;62348;51.412;5.436;2023-11-18T10:53:49;13.38;;;5.30;;
73980;SDS011;62348;51.412;5.436;2023-11-18T10:56:25;9.98;;;5.35;;
73980;SDS011;62348;51.412;5.436;2023-11-18T10:58:57;15.65;;;5.93;;
73980;SDS011;62348;51.412;5.436;2023-11-18T11:01:27;14.38;;;5.85;;
73980;SDS011;62348;51.412;5.436;2023-11-18T11:03:57;13.32;;;5.85;;
73980;SDS011;62348;51.412;5.436;2023-11-18T11:06:26;9.57;;;4.70;;
73980;SDS011;62348;51.412;5.436;2023-11-18T11:09:01;11.27;;;4.43;;
73980;SDS011;62348;51.412;5.436;2023-11-18T11:11:39;12.57;;;4.53;;
73980;SDS011;62348;51.412;5.436;2023-11-18T11:14:11;11.55;;;4.53;;
73980;SDS011;62348;51.412;5.436;2023-11-18T11:16:42;10.15;;;4.53;;
73980;SDS011;62348;51.412;5.436;2023-11-18T11:19:29;15.25;;;4.25;;
73980;SDS011;62348;51.412;5.436;2023-11-18T11:22:12;11.15;;;4.55;;
73980;SDS011;62348;51.412;5.436;2023-11-18T11:25:02;10.23;;;3.92;;
73980;SDS011;62348;51.412;5.436;2023-11-18T11:30:40;10.35;;;4.63;;
73980;SDS011;62348;51.412;5.436;2023-11-18T11:38:25;14.00;;;5.20;;
73980;SDS011;62348;51.412;5.436;2023-11-18T11:40:52;8.60;;;4.47;;
73980;SDS011;62348;51.412;5.436;2023-11-18T11:43:20;10.80;;;4.95;;
73980;SDS011;62348;51.412;5.436;2023-11-18T11:45:53;5.53;;;3.78;;
73980;SDS011;62348;51.412;5.436;2023-11-18T11:48:20;13.48;;;4.13;;
73980;SDS011;62348;51.412;5.436;2023-11-18T11:53:39;13.68;;;4.30;;
73980;SDS011;62348;51.412;5.436;2023-11-18T11:56:11;8.70;;;4.57;;
73980;SDS011;62348;51.412;5.436;2023-11-18T11:58:39;8.15;;;4.63;;
73980;SDS011;62348;51.412;5.436;2023-11-18T12:01:15;9.93;;;3.70;;
73980;SDS011;62348;51.412;5.436;2023-11-18T12:03:49;6.95;;;3.22;;
73980;SDS011;62348;51.412;5.436;2023-11-18T12:06:22;9.68;;;2.92;;
73980;SDS011;62348;51.412;5.436;2023-11-18T12:08:54;7.80;;;3.22;;
73980;SDS011;62348;51.412;5.436;2023-11-18T12:11:21;8.00;;;3.30;;
73980;SDS011;62348;51.412;5.436;2023-11-18T12:14:05;5.78;;;2.53;;
73980;SDS011;62348;51.412;5.436;2023-11-18T12:19:29;6.03;;;2.63;;
73980;SDS011;62348;51.412;5.436;2023-11-18T12:21:56;12.15;;;3.20;;
73980;SDS011;62348;51.412;5.436;2023-11-18T12:24:21;6.22;;;2.72;;
73980;SDS011;62348;51.412;5.436;2023-11-18T12:26:48;6.65;;;2.85;;
73980;SDS011;62348;51.412;5.436;2023-11-18T12:29:33;10.68;;;3.20;;
73980;SDS011;62348;51.412;5.436;2023-11-18T12:31:59;6.65;;;3.13;;
73980;SDS011;62348;51.412;5.436;2023-11-18T12:34:48;6.97;;;3.60;;
73980;SDS011;62348;51.412;5.436;2023-11-18T12:40:23;10.90;;;3.35;;
73980;SDS011;62348;51.412;5.436;2023-11-18T12:43:03;8.05;;;4.03;;
73980;SDS011;62348;51.412;5.436;2023-11-18T12:48:32;7.97;;;3.83;;
73980;SDS011;62348;51.412;5.436;2023-11-18T12:51:01;6.28;;;3.63;;
73980;SDS011;62348;51.412;5.436;2023-11-18T12:53:27;7.40;;;3.55;;
73980;SDS011;62348;51.412;5.436;2023-11-18T12:55:53;7.30;;;3.72;;
73980;SDS011;62348;51.412;5.436;2023-11-18T12:58:19;5.03;;;3.42;;
73980;SDS011;62348;51.412;5.436;2023-11-18T13:00:45;7.88;;;3.72;;
73980;SDS011;62348;51.412;5.436;2023-11-18T13:03:11;4.70;;;3.20;;
73980;SDS011;62348;51.412;5.436;2023-11-18T13:05:40;8.00;;;3.03;;
73980;SDS011;62348;51.412;5.436;2023-11-18T13:08:06;9.40;;;3.63;;
73980;SDS011;62348;51.412;5.436;2023-11-18T13:10:32;5.85;;;3.75;;
73980;SDS011;62348;51.412;5.436;2023-11-18T13:12:57;8.80;;;3.38;;
73980;SDS011;62348;51.412;5.436;2023-11-18T13:15:25;5.63;;;3.22;;
73980;SDS011;62348;51.412;5.436;2023-11-18T13:18:00;6.40;;;3.15;;
73980;SDS011;62348;51.412;5.436;2023-11-18T13:20:27;5.97;;;3.10;;
73980;SDS011;62348;51.412;5.436;2023-11-18T13:22:54;6.13;;;3.15;;
73980;SDS011;62348;51.412;5.436;2023-11-18T13:25:23;5.15;;;3.45;;
73980;SDS011;62348;51.412;5.436;2023-11-18T13:27:48;6.70;;;3.35;;
73980;SDS011;62348;51.412;5.436;2023-11-18T13:30:14;5.82;;;2.50;;
73980;SDS011;62348;51.412;5.436;2023-11-18T13:32:42;7.85;;;2.88;;
73980;SDS011;62348;51.412;5.436;2023-11-18T13:35:08;9.07;;;5.40;;
73980;SDS011;62348;51.412;5.436;2023-11-18T13:37:36;8.43;;;3.50;;
73980;SDS011;62348;51.412;5.436;2023-11-18T13:40:01;7.65;;;4.03;;
73980;SDS011;62348;51.412;5.436;2023-11-18T13:42:31;3.53;;;2.80;;
73980;SDS011;62348;51.412;5.436;2023-11-18T13:45:05;3.55;;;2.33;;
73980;SDS011;62348;51.412;5.436;2023-11-18T13:47:34;2.67;;;2.45;;
73980;SDS011;62348;51.412;5.436;2023-11-18T13:50:01;3.97;;;2.50;;
73980;SDS011;62348;51.412;5.436;2023-11-18T13:52:32;2.85;;;2.42;;
73980;SDS011;62348;51.412;5.436;2023-11-18T13:54:58;2.97;;;2.58;;
73980;SDS011;62348;51.412;5.436;2023-11-18T13:57:24;4.30;;;2.25;;
73980;SDS011;62348;51.412;5.436;2023-11-18T13:59:50;2.55;;;2.35;;
73980;SDS011;62348;51.412;5.436;2023-11-18T14:02:16;4.30;;;2.28;;
73980;SDS011;62348;51.412;5.436;2023-11-18T14:04:42;4.18;;;2.47;;
73980;SDS011;62348;51.412;5.436;2023-11-18T14:07:09;1.98;;;1.88;;
73980;SDS011;62348;51.412;5.436;2023-11-18T14:09:38;4.05;;;2.22;;
73980;SDS011;62348;51.412;5.436;2023-11-18T14:12:09;2.10;;;1.80;;
73980;SDS011;62348;51.412;5.436;2023-11-18T14:14:36;3.78;;;2.03;;
73980;SDS011;62348;51.412;5.436;2023-11-18T14:17:02;3.58;;;2.70;;
73980;SDS011;62348;51.412;5.436;2023-11-18T14:19:28;5.32;;;2.80;;
73980;SDS011;62348;51.412;5.436;2023-11-18T14:21:56;2.20;;;1.60;;
73980;SDS011;62348;51.412;5.436;2023-11-18T14:24:22;3.25;;;2.00;;
73980;SDS011;62348;51.412;5.436;2023-11-18T14:26:53;2.95;;;2.00;;
73980;SDS011;62348;51.412;5.436;2023-11-18T14:29:21;3.40;;;2.10;;
73980;SDS011;62348;51.412;5.436;2023-11-18T14:31:48;1.90;;;1.42;;
73980;SDS011;62348;51.412;5.436;2023-11-18T14:34:13;1.77;;;1.40;;
73980;SDS011;62348;51.412;5.436;2023-11-18T14:36:39;1.98;;;1.38;;
73980;SDS011;62348;51.412;5.436;2023-11-18T14:39:06;1.65;;;1.45;;
73980;SDS011;62348;51.412;5.436;2023-11-18T14:41:35;1.45;;;1.27;;
73980;SDS011;62348;51.412;5.436;2023-11-18T14:44:01;2.20;;;1.40;;
73980;SDS011;62348;51.412;5.436;2023-11-18T14:46:29;1.40;;;1.25;;
73980;SDS011;62348;51.412;5.436;2023-11-18T14:48:56;3.08;;;1.90;;
73980;SDS011;62348;51.412;5.436;2023-11-18T14:51:22;1.52;;;1.30;;
73980;SDS011;62348;51.412;5.436;2023-11-18T14:53:47;2.10;;;1.50;;
73980;SDS011;62348;51.412;5.436;2023-11-18T14:56:13;3.45;;;1.60;;
73980;SDS011;62348;51.412;5.436;2023-11-18T14:58:39;2.47;;;1.70;;
73980;SDS011;62348;51.412;5.436;2023-11-18T15:01:05;2.42;;;1.23;;